sensor_id;sensor_type;location;lat;lon;timestamp;P1;durP1;ratioP1;P2;durP2;ratioP2
83362;SDS011;73275;50.882;5.984;2024-02-21T00:01:18;14.53;;;4.97;;
83362;SDS011;73275;50.882;5.984;2024-02-21T00:03:46;15.48;;;4.85;;
83362;SDS011;73275;50.882;5.984;2024-02-21T00:06:12;19.20;;;4.97;;
83362;SDS011;73275;50.882;5.984;2024-02-21T00:08:37;11.85;;;4.28;;
83362;SDS011;73275;50.882;5.984;2024-02-21T00:11:02;22.43;;;7.27;;
83362;SDS011;73275;50.882;5.984;2024-02-21T00:13:28;17.37;;;6.40;;
83362;SDS011;73275;50.882;5.984;2024-02-21T00:15:53;15.73;;;5.03;;
83362;SDS011;73275;50.882;5.984;2024-02-21T00:18:19;20.10;;;5.80;;
83362;SDS011;73275;50.882;5.984;2024-02-21T00:20:44;18.27;;;4.77;;
83362;SDS011;73275;50.882;5.984;2024-02-21T00:23:09;19.67;;;6.27;;
83362;SDS011;73275;50.882;5.984;2024-02-21T00:25:35;15.37;;;5.87;;
83362;SDS011;73275;50.882;5.984;2024-02-21T00:28:00;17.77;;;6.03;;
83362;SDS011;73275;50.882;5.984;2024-02-21T00:30:25;18.13;;;5.07;;
83362;SDS011;73275;50.882;5.984;2024-02-21T00:32:51;20.47;;;6.20;;
83362;SDS011;73275;50.882;5.984;2024-02-21T00:35:16;16.23;;;4.75;;
83362;SDS011;73275;50.882;5.984;2024-02-21T00:37:42;9.97;;;4.43;;
83362;SDS011;73275;50.882;5.984;2024-02-21T00:40:07;21.10;;;5.83;;
83362;SDS011;73275;50.882;5.984;2024-02-21T00:42:33;20.25;;;6.05;;
83362;SDS011;73275;50.882;5.984;2024-02-21T00:44:58;17.27;;;5.73;;
83362;SDS011;73275;50.882;5.984;2024-02-21T00:47:24;20.70;;;5.87;;
83362;SDS011;73275;50.882;5.984;2024-02-21T00:49:49;12.33;;;4.50;;
83362;SDS011;73275;50.882;5.984;2024-02-21T00:52:15;13.73;;;5.63;;
83362;SDS011;73275;50.882;5.984;2024-02-21T00:54:40;15.70;;;5.97;;
83362;SDS011;73275;50.882;5.984;2024-02-21T00:57:06;17.50;;;5.47;;
83362;SDS011;73275;50.882;5.984;2024-02-21T00:59:31;24.40;;;5.93;;
83362;SDS011;73275;50.882;5.984;2024-02-21T01:01:57;17.13;;;4.90;;
83362;SDS011;73275;50.882;5.984;2024-02-21T01:04:22;23.73;;;5.73;;
83362;SDS011;73275;50.882;5.984;2024-02-21T01:06:49;19.83;;;6.60;;
83362;SDS011;73275;50.882;5.984;2024-02-21T01:09:15;20.90;;;6.60;;
83362;SDS011;73275;50.882;5.984;2024-02-21T01:11:40;17.53;;;6.10;;
83362;SDS011;73275;50.882;5.984;2024-02-21T01:14:05;14.68;;;5.10;;
83362;SDS011;73275;50.882;5.984;2024-02-21T01:16:31;21.20;;;6.03;;
83362;SDS011;73275;50.882;5.984;2024-02-21T01:18:56;21.17;;;6.03;;
83362;SDS011;73275;50.882;5.984;2024-02-21T01:21:22;20.02;;;5.85;;
83362;SDS011;73275;50.882;5.984;2024-02-21T01:23:48;15.37;;;5.27;;
83362;SDS011;73275;50.882;5.984;2024-02-21T01:26:13;18.23;;;5.20;;
83362;SDS011;73275;50.882;5.984;2024-02-21T01:28:40;17.63;;;5.63;;
83362;SDS011;73275;50.882;5.984;2024-02-21T01:31:06;12.88;;;5.03;;
83362;SDS011;73275;50.882;5.984;2024-02-21T01:33:32;24.03;;;6.67;;
83362;SDS011;73275;50.882;5.984;2024-02-21T01:36:02;12.75;;;5.30;;
83362;SDS011;73275;50.882;5.984;2024-02-21T01:38:28;18.23;;;5.85;;
83362;SDS011;73275;50.882;5.984;2024-02-21T01:40:54;11.27;;;5.30;;
83362;SDS011;73275;50.882;5.984;2024-02-21T01:43:19;17.20;;;6.13;;
83362;SDS011;73275;50.882;5.984;2024-02-21T01:45:46;17.40;;;5.23;;
83362;SDS011;73275;50.882;5.984;2024-02-21T01:48:14;20.27;;;6.18;;
83362;SDS011;73275;50.882;5.984;2024-02-21T01:50:40;11.70;;;4.22;;
83362;SDS011;73275;50.882;5.984;2024-02-21T01:53:05;13.60;;;5.07;;
83362;SDS011;73275;50.882;5.984;2024-02-21T01:55:32;14.63;;;5.35;;
83362;SDS011;73275;50.882;5.984;2024-02-21T01:57:57;13.73;;;4.60;;
83362;SDS011;73275;50.882;5.984;2024-02-21T02:00:24;16.42;;;5.05;;
83362;SDS011;73275;50.882;5.984;2024-02-21T02:02:49;17.93;;;5.20;;
83362;SDS011;73275;50.882;5.984;2024-02-21T02:05:15;13.93;;;5.72;;
83362;SDS011;73275;50.882;5.984;2024-02-21T02:07:42;17.52;;;5.20;;
83362;SDS011;73275;50.882;5.984;2024-02-21T02:10:07;18.00;;;6.40;;
83362;SDS011;73275;50.882;5.984;2024-02-21T02:12:35;16.30;;;5.45;;
83362;SDS011;73275;50.882;5.984;2024-02-21T02:15:01;11.20;;;4.43;;
83362;SDS011;73275;50.882;5.984;2024-02-21T02:17:29;26.13;;;6.30;;
83362;SDS011;73275;50.882;5.984;2024-02-21T02:19:55;12.68;;;4.38;;
83362;SDS011;73275;50.882;5.984;2024-02-21T02:22:22;15.67;;;5.73;;
83362;SDS011;73275;50.882;5.984;2024-02-21T02:24:50;16.17;;;5.22;;
83362;SDS011;73275;50.882;5.984;2024-02-21T02:27:16;14.23;;;5.10;;
83362;SDS011;73275;50.882;5.984;2024-02-21T02:29:41;15.80;;;5.40;;
83362;SDS011;73275;50.882;5.984;2024-02-21T02:32:07;16.00;;;5.20;;
83362;SDS011;73275;50.882;5.984;2024-02-21T02:34:32;21.77;;;6.03;;
83362;SDS011;73275;50.882;5.984;2024-02-21T02:36:57;17.17;;;5.13;;
83362;SDS011;73275;50.882;5.984;2024-02-21T02:39:23;21.23;;;5.35;;
83362;SDS011;73275;50.882;5.984;2024-02-21T02:41:48;12.70;;;5.10;;
83362;SDS011;73275;50.882;5.984;2024-02-21T02:44:13;16.40;;;5.47;;
83362;SDS011;73275;50.882;5.984;2024-02-21T02:46:42;15.57;;;4.87;;
83362;SDS011;73275;50.882;5.984;2024-02-21T02:49:08;14.65;;;5.25;;
83362;SDS011;73275;50.882;5.984;2024-02-21T02:51:34;23.58;;;5.68;;
83362;SDS011;73275;50.882;5.984;2024-02-21T02:53:59;15.07;;;5.10;;
83362;SDS011;73275;50.882;5.984;2024-02-21T02:56:24;14.27;;;4.90;;
83362;SDS011;73275;50.882;5.984;2024-02-21T02:58:50;11.97;;;4.67;;
83362;SDS011;73275;50.882;5.984;2024-02-21T03:01:15;19.75;;;4.88;;
83362;SDS011;73275;50.882;5.984;2024-02-21T03:03:41;17.87;;;5.03;;
83362;SDS011;73275;50.882;5.984;2024-02-21T03:06:06;18.17;;;4.53;;
83362;SDS011;73275;50.882;5.984;2024-02-21T03:08:31;17.70;;;4.53;;
83362;SDS011;73275;50.882;5.984;2024-02-21T03:10:58;17.98;;;5.72;;
83362;SDS011;73275;50.882;5.984;2024-02-21T03:13:24;18.38;;;5.10;;
83362;SDS011;73275;50.882;5.984;2024-02-21T03:15:50;13.13;;;4.33;;
83362;SDS011;73275;50.882;5.984;2024-02-21T03:18:15;10.73;;;4.10;;
83362;SDS011;73275;50.882;5.984;2024-02-21T03:20:41;16.17;;;4.50;;
83362;SDS011;73275;50.882;5.984;2024-02-21T03:23:06;15.13;;;4.90;;
83362;SDS011;73275;50.882;5.984;2024-02-21T03:25:32;15.33;;;5.03;;
83362;SDS011;73275;50.882;5.984;2024-02-21T03:27:57;14.30;;;5.82;;
83362;SDS011;73275;50.882;5.984;2024-02-21T03:30:22;19.97;;;5.20;;
83362;SDS011;73275;50.882;5.984;2024-02-21T03:32:48;11.60;;;3.80;;
83362;SDS011;73275;50.882;5.984;2024-02-21T03:35:13;19.40;;;5.40;;
83362;SDS011;73275;50.882;5.984;2024-02-21T03:37:39;17.70;;;5.30;;
83362;SDS011;73275;50.882;5.984;2024-02-21T03:40:08;15.23;;;4.75;;
83362;SDS011;73275;50.882;5.984;2024-02-21T03:42:34;16.93;;;4.80;;
83362;SDS011;73275;50.882;5.984;2024-02-21T03:44:59;15.55;;;5.45;;
83362;SDS011;73275;50.882;5.984;2024-02-21T03:47:25;17.03;;;5.80;;
83362;SDS011;73275;50.882;5.984;2024-02-21T03:49:50;11.50;;;4.43;;
83362;SDS011;73275;50.882;5.984;2024-02-21T03:52:16;17.07;;;5.27;;
83362;SDS011;73275;50.882;5.984;2024-02-21T03:54:41;16.45;;;4.55;;
83362;SDS011;73275;50.882;5.984;2024-02-21T03:57:07;16.47;;;6.83;;
83362;SDS011;73275;50.882;5.984;2024-02-21T03:59:32;13.90;;;4.80;;
83362;SDS011;73275;50.882;5.984;2024-02-21T04:01:58;16.63;;;4.35;;
83362;SDS011;73275;50.882;5.984;2024-02-21T04:04:24;16.03;;;5.13;;
83362;SDS011;73275;50.882;5.984;2024-02-21T04:06:49;14.70;;;5.30;;
83362;SDS011;73275;50.882;5.984;2024-02-21T04:09:15;12.52;;;4.22;;
83362;SDS011;73275;50.882;5.984;2024-02-21T04:11:41;16.77;;;5.40;;
83362;SDS011;73275;50.882;5.984;2024-02-21T04:14:06;14.80;;;4.13;;
83362;SDS011;73275;50.882;5.984;2024-02-21T04:16:32;14.63;;;4.85;;
83362;SDS011;73275;50.882;5.984;2024-02-21T04:18:57;14.40;;;4.70;;
83362;SDS011;73275;50.882;5.984;2024-02-21T04:21:23;19.97;;;4.20;;
83362;SDS011;73275;50.882;5.984;2024-02-21T04:23:48;12.90;;;4.07;;
83362;SDS011;73275;50.882;5.984;2024-02-21T04:26:13;13.00;;;3.93;;
83362;SDS011;73275;50.882;5.984;2024-02-21T04:28:39;11.90;;;3.97;;
83362;SDS011;73275;50.882;5.984;2024-02-21T04:31:04;14.93;;;4.47;;
83362;SDS011;73275;50.882;5.984;2024-02-21T04:33:30;12.77;;;4.37;;
83362;SDS011;73275;50.882;5.984;2024-02-21T04:35:55;17.93;;;4.80;;
83362;SDS011;73275;50.882;5.984;2024-02-21T04:38:21;12.63;;;5.17;;
83362;SDS011;73275;50.882;5.984;2024-02-21T04:40:46;14.50;;;5.27;;
83362;SDS011;73275;50.882;5.984;2024-02-21T04:43:11;14.00;;;4.83;;
83362;SDS011;73275;50.882;5.984;2024-02-21T04:45:37;17.33;;;4.53;;
83362;SDS011;73275;50.882;5.984;2024-02-21T04:48:02;11.53;;;4.03;;
83362;SDS011;73275;50.882;5.984;2024-02-21T04:50:28;14.63;;;4.78;;
83362;SDS011;73275;50.882;5.984;2024-02-21T04:52:53;13.60;;;4.80;;
83362;SDS011;73275;50.882;5.984;2024-02-21T04:55:19;12.67;;;4.47;;
83362;SDS011;73275;50.882;5.984;2024-02-21T04:57:44;15.30;;;4.23;;
83362;SDS011;73275;50.882;5.984;2024-02-21T05:00:09;12.77;;;4.37;;
83362;SDS011;73275;50.882;5.984;2024-02-21T05:02:35;13.27;;;4.53;;
83362;SDS011;73275;50.882;5.984;2024-02-21T05:05:01;13.40;;;4.03;;
83362;SDS011;73275;50.882;5.984;2024-02-21T05:07:27;10.57;;;3.65;;
83362;SDS011;73275;50.882;5.984;2024-02-21T05:09:53;11.13;;;4.23;;
83362;SDS011;73275;50.882;5.984;2024-02-21T05:12:18;13.03;;;4.00;;
83362;SDS011;73275;50.882;5.984;2024-02-21T05:14:43;12.10;;;3.15;;
83362;SDS011;73275;50.882;5.984;2024-02-21T05:17:09;18.13;;;4.47;;
83362;SDS011;73275;50.882;5.984;2024-02-21T05:19:34;8.67;;;3.40;;
83362;SDS011;73275;50.882;5.984;2024-02-21T05:21:59;9.77;;;3.57;;
83362;SDS011;73275;50.882;5.984;2024-02-21T05:24:25;12.23;;;3.50;;
83362;SDS011;73275;50.882;5.984;2024-02-21T05:26:51;12.88;;;3.97;;
83362;SDS011;73275;50.882;5.984;2024-02-21T05:29:16;16.43;;;4.00;;
83362;SDS011;73275;50.882;5.984;2024-02-21T05:34:16;10.53;;;3.47;;
83362;SDS011;73275;50.882;5.984;2024-02-21T05:36:42;12.15;;;3.97;;
83362;SDS011;73275;50.882;5.984;2024-02-21T05:39:08;10.68;;;3.30;;
83362;SDS011;73275;50.882;5.984;2024-02-21T05:41:33;8.73;;;3.23;;
83362;SDS011;73275;50.882;5.984;2024-02-21T05:43:59;12.20;;;3.93;;
83362;SDS011;73275;50.882;5.984;2024-02-21T05:46:24;12.90;;;3.87;;
83362;SDS011;73275;50.882;5.984;2024-02-21T05:48:49;10.90;;;3.80;;
83362;SDS011;73275;50.882;5.984;2024-02-21T05:51:15;15.73;;;4.20;;
83362;SDS011;73275;50.882;5.984;2024-02-21T05:53:40;12.30;;;4.30;;
83362;SDS011;73275;50.882;5.984;2024-02-21T05:56:14;9.13;;;3.57;;
83362;SDS011;73275;50.882;5.984;2024-02-21T05:58:40;12.38;;;3.38;;
83362;SDS011;73275;50.882;5.984;2024-02-21T06:01:06;16.63;;;4.20;;
83362;SDS011;73275;50.882;5.984;2024-02-21T06:03:34;15.07;;;3.63;;
83362;SDS011;73275;50.882;5.984;2024-02-21T06:06:01;12.05;;;3.33;;
83362;SDS011;73275;50.882;5.984;2024-02-21T06:08:26;12.23;;;3.60;;
83362;SDS011;73275;50.882;5.984;2024-02-21T06:10:52;14.20;;;4.20;;
83362;SDS011;73275;50.882;5.984;2024-02-21T06:13:19;17.73;;;3.80;;
83362;SDS011;73275;50.882;5.984;2024-02-21T06:15:46;14.40;;;4.57;;
83362;SDS011;73275;50.882;5.984;2024-02-21T06:18:12;14.35;;;3.90;;
83362;SDS011;73275;50.882;5.984;2024-02-21T06:20:37;12.67;;;3.83;;
83362;SDS011;73275;50.882;5.984;2024-02-21T06:23:05;13.73;;;4.60;;
83362;SDS011;73275;50.882;5.984;2024-02-21T06:25:31;12.50;;;3.50;;
83362;SDS011;73275;50.882;5.984;2024-02-21T06:27:56;16.13;;;4.00;;
83362;SDS011;73275;50.882;5.984;2024-02-21T06:30:21;14.80;;;4.03;;
83362;SDS011;73275;50.882;5.984;2024-02-21T06:32:47;15.03;;;3.70;;
83362;SDS011;73275;50.882;5.984;2024-02-21T06:35:12;15.80;;;4.13;;
83362;SDS011;73275;50.882;5.984;2024-02-21T06:37:38;9.97;;;3.00;;
83362;SDS011;73275;50.882;5.984;2024-02-21T06:40:03;12.52;;;3.70;;
83362;SDS011;73275;50.882;5.984;2024-02-21T06:42:29;9.97;;;3.20;;
83362;SDS011;73275;50.882;5.984;2024-02-21T06:44:55;15.13;;;2.90;;
83362;SDS011;73275;50.882;5.984;2024-02-21T06:47:21;9.23;;;3.05;;
83362;SDS011;73275;50.882;5.984;2024-02-21T06:49:50;9.53;;;2.97;;
83362;SDS011;73275;50.882;5.984;2024-02-21T06:52:17;14.00;;;3.78;;
83362;SDS011;73275;50.882;5.984;2024-02-21T06:54:45;10.07;;;3.35;;
83362;SDS011;73275;50.882;5.984;2024-02-21T06:57:12;11.30;;;3.50;;
83362;SDS011;73275;50.882;5.984;2024-02-21T06:59:38;12.65;;;3.22;;
83362;SDS011;73275;50.882;5.984;2024-02-21T07:02:04;8.60;;;3.23;;
83362;SDS011;73275;50.882;5.984;2024-02-21T07:04:29;13.97;;;3.57;;
83362;SDS011;73275;50.882;5.984;2024-02-21T07:06:54;12.47;;;3.10;;
83362;SDS011;73275;50.882;5.984;2024-02-21T07:09:20;13.03;;;3.50;;
83362;SDS011;73275;50.882;5.984;2024-02-21T07:11:45;9.57;;;2.63;;
83362;SDS011;73275;50.882;5.984;2024-02-21T07:14:11;8.20;;;2.67;;
83362;SDS011;73275;50.882;5.984;2024-02-21T07:16:36;12.80;;;3.50;;
83362;SDS011;73275;50.882;5.984;2024-02-21T07:19:02;13.70;;;3.13;;
83362;SDS011;73275;50.882;5.984;2024-02-21T07:21:28;12.00;;;3.00;;
83362;SDS011;73275;50.882;5.984;2024-02-21T07:23:53;9.60;;;3.10;;
83362;SDS011;73275;50.882;5.984;2024-02-21T07:26:18;9.10;;;3.23;;
83362;SDS011;73275;50.882;5.984;2024-02-21T07:28:44;9.97;;;3.10;;
83362;SDS011;73275;50.882;5.984;2024-02-21T07:31:09;6.77;;;2.63;;
83362;SDS011;73275;50.882;5.984;2024-02-21T07:33:34;10.43;;;3.17;;
83362;SDS011;73275;50.882;5.984;2024-02-21T07:36:00;12.55;;;3.58;;
83362;SDS011;73275;50.882;5.984;2024-02-21T07:38:26;12.20;;;3.10;;
83362;SDS011;73275;50.882;5.984;2024-02-21T07:40:51;11.27;;;2.90;;
83362;SDS011;73275;50.882;5.984;2024-02-21T07:43:17;7.40;;;2.73;;
83362;SDS011;73275;50.882;5.984;2024-02-21T07:45:42;9.00;;;2.37;;
83362;SDS011;73275;50.882;5.984;2024-02-21T07:48:07;10.53;;;3.27;;
83362;SDS011;73275;50.882;5.984;2024-02-21T07:50:33;10.73;;;3.40;;
83362;SDS011;73275;50.882;5.984;2024-02-21T07:52:58;9.85;;;2.92;;
83362;SDS011;73275;50.882;5.984;2024-02-21T07:55:24;7.03;;;2.60;;
83362;SDS011;73275;50.882;5.984;2024-02-21T07:57:49;11.63;;;3.63;;
83362;SDS011;73275;50.882;5.984;2024-02-21T08:00:15;10.50;;;2.60;;
83362;SDS011;73275;50.882;5.984;2024-02-21T08:02:45;10.93;;;3.33;;
83362;SDS011;73275;50.882;5.984;2024-02-21T08:05:11;8.93;;;3.35;;
83362;SDS011;73275;50.882;5.984;2024-02-21T08:07:37;9.88;;;3.08;;
83362;SDS011;73275;50.882;5.984;2024-02-21T08:10:03;9.27;;;2.90;;
83362;SDS011;73275;50.882;5.984;2024-02-21T08:12:29;12.07;;;3.10;;
83362;SDS011;73275;50.882;5.984;2024-02-21T08:14:54;7.33;;;3.13;;
83362;SDS011;73275;50.882;5.984;2024-02-21T08:17:20;12.17;;;3.13;;
83362;SDS011;73275;50.882;5.984;2024-02-21T08:19:45;13.25;;;3.13;;
83362;SDS011;73275;50.882;5.984;2024-02-21T08:22:11;10.20;;;2.90;;
83362;SDS011;73275;50.882;5.984;2024-02-21T08:24:36;15.77;;;3.87;;
83362;SDS011;73275;50.882;5.984;2024-02-21T08:27:01;13.43;;;3.10;;
83362;SDS011;73275;50.882;5.984;2024-02-21T08:29:27;10.50;;;3.15;;
83362;SDS011;73275;50.882;5.984;2024-02-21T08:31:53;9.57;;;2.37;;
83362;SDS011;73275;50.882;5.984;2024-02-21T08:34:18;7.10;;;2.60;;
83362;SDS011;73275;50.882;5.984;2024-02-21T08:36:44;7.18;;;2.10;;
83362;SDS011;73275;50.882;5.984;2024-02-21T08:39:09;8.77;;;2.33;;
83362;SDS011;73275;50.882;5.984;2024-02-21T08:41:34;9.40;;;2.53;;
83362;SDS011;73275;50.882;5.984;2024-02-21T08:44:00;8.27;;;2.10;;
83362;SDS011;73275;50.882;5.984;2024-02-21T08:46:26;7.57;;;2.20;;
83362;SDS011;73275;50.882;5.984;2024-02-21T08:48:52;7.95;;;2.15;;
83362;SDS011;73275;50.882;5.984;2024-02-21T08:51:18;8.47;;;2.30;;
83362;SDS011;73275;50.882;5.984;2024-02-21T08:53:44;8.55;;;1.95;;
83362;SDS011;73275;50.882;5.984;2024-02-21T08:56:10;7.20;;;2.30;;
83362;SDS011;73275;50.882;5.984;2024-02-21T08:58:36;8.37;;;2.77;;
83362;SDS011;73275;50.882;5.984;2024-02-21T09:01:02;12.65;;;2.63;;
83362;SDS011;73275;50.882;5.984;2024-02-21T09:03:30;7.20;;;2.35;;
83362;SDS011;73275;50.882;5.984;2024-02-21T09:05:56;9.23;;;2.20;;
83362;SDS011;73275;50.882;5.984;2024-02-21T09:08:22;7.78;;;1.80;;
83362;SDS011;73275;50.882;5.984;2024-02-21T09:10:47;8.87;;;1.77;;
83362;SDS011;73275;50.882;5.984;2024-02-21T09:13:13;5.10;;;1.40;;
83362;SDS011;73275;50.882;5.984;2024-02-21T09:15:38;7.57;;;2.03;;
83362;SDS011;73275;50.882;5.984;2024-02-21T09:18:03;9.47;;;2.30;;
83362;SDS011;73275;50.882;5.984;2024-02-21T09:20:29;7.03;;;2.85;;
83362;SDS011;73275;50.882;5.984;2024-02-21T09:22:54;6.47;;;1.83;;
83362;SDS011;73275;50.882;5.984;2024-02-21T09:25:19;10.97;;;2.20;;
83362;SDS011;73275;50.882;5.984;2024-02-21T09:27:45;6.87;;;2.40;;
83362;SDS011;73275;50.882;5.984;2024-02-21T09:30:10;7.57;;;2.20;;
83362;SDS011;73275;50.882;5.984;2024-02-21T09:32:37;9.10;;;2.30;;
83362;SDS011;73275;50.882;5.984;2024-02-21T09:35:03;5.20;;;1.60;;
83362;SDS011;73275;50.882;5.984;2024-02-21T09:37:28;4.63;;;2.03;;
83362;SDS011;73275;50.882;5.984;2024-02-21T09:39:54;5.43;;;2.10;;
83362;SDS011;73275;50.882;5.984;2024-02-21T09:42:22;3.83;;;1.80;;
83362;SDS011;73275;50.882;5.984;2024-02-21T09:44:59;7.03;;;2.33;;
83362;SDS011;73275;50.882;5.984;2024-02-21T09:47:30;4.57;;;1.63;;
83362;SDS011;73275;50.882;5.984;2024-02-21T09:50:05;4.45;;;1.98;;
83362;SDS011;73275;50.882;5.984;2024-02-21T09:52:31;7.35;;;2.25;;
83362;SDS011;73275;50.882;5.984;2024-02-21T09:55:01;7.65;;;2.03;;
83362;SDS011;73275;50.882;5.984;2024-02-21T09:57:30;8.88;;;2.80;;
83362;SDS011;73275;50.882;5.984;2024-02-21T09:59:56;5.97;;;2.27;;
83362;SDS011;73275;50.882;5.984;2024-02-21T10:02:24;7.38;;;2.10;;
83362;SDS011;73275;50.882;5.984;2024-02-21T10:04:49;5.05;;;1.58;;
83362;SDS011;73275;50.882;5.984;2024-02-21T10:07:15;6.40;;;2.67;;
83362;SDS011;73275;50.882;5.984;2024-02-21T10:09:40;8.33;;;2.53;;
83362;SDS011;73275;50.882;5.984;2024-02-21T10:12:10;10.35;;;2.08;;
83362;SDS011;73275;50.882;5.984;2024-02-21T10:14:37;7.57;;;2.30;;
83362;SDS011;73275;50.882;5.984;2024-02-21T10:17:02;6.00;;;1.80;;
83362;SDS011;73275;50.882;5.984;2024-02-21T10:19:34;6.47;;;2.53;;
83362;SDS011;73275;50.882;5.984;2024-02-21T10:22:00;5.50;;;1.97;;
83362;SDS011;73275;50.882;5.984;2024-02-21T10:24:28;8.00;;;2.53;;
83362;SDS011;73275;50.882;5.984;2024-02-21T10:27:07;5.53;;;2.60;;
83362;SDS011;73275;50.882;5.984;2024-02-21T10:29:34;7.43;;;3.05;;
83362;SDS011;73275;50.882;5.984;2024-02-21T10:32:03;7.10;;;2.23;;
83362;SDS011;73275;50.882;5.984;2024-02-21T10:34:33;9.68;;;2.70;;
83362;SDS011;73275;50.882;5.984;2024-02-21T10:37:02;10.18;;;2.72;;
83362;SDS011;73275;50.882;5.984;2024-02-21T10:39:28;9.98;;;2.70;;
83362;SDS011;73275;50.882;5.984;2024-02-21T10:41:54;8.03;;;2.13;;
83362;SDS011;73275;50.882;5.984;2024-02-21T10:44:24;10.10;;;2.75;;
83362;SDS011;73275;50.882;5.984;2024-02-21T10:46:53;17.40;;;3.10;;
83362;SDS011;73275;50.882;5.984;2024-02-21T10:49:22;10.57;;;2.65;;
83362;SDS011;73275;50.882;5.984;2024-02-21T10:51:50;7.00;;;2.27;;
83362;SDS011;73275;50.882;5.984;2024-02-21T10:56:57;8.13;;;2.95;;
83362;SDS011;73275;50.882;5.984;2024-02-21T10:59:25;7.75;;;2.50;;
83362;SDS011;73275;50.882;5.984;2024-02-21T11:01:54;8.55;;;3.15;;
83362;SDS011;73275;50.882;5.984;2024-02-21T11:04:19;6.93;;;2.50;;
83362;SDS011;73275;50.882;5.984;2024-02-21T11:06:45;9.00;;;2.57;;
83362;SDS011;73275;50.882;5.984;2024-02-21T11:09:12;8.52;;;2.42;;
83362;SDS011;73275;50.882;5.984;2024-02-21T11:11:38;9.97;;;3.03;;
83362;SDS011;73275;50.882;5.984;2024-02-21T11:14:09;8.88;;;2.78;;
83362;SDS011;73275;50.882;5.984;2024-02-21T11:16:37;6.00;;;2.40;;
83362;SDS011;73275;50.882;5.984;2024-02-21T11:19:06;7.75;;;3.00;;
83362;SDS011;73275;50.882;5.984;2024-02-21T11:21:44;12.45;;;3.15;;
83362;SDS011;73275;50.882;5.984;2024-02-21T11:24:13;9.33;;;2.70;;
83362;SDS011;73275;50.882;5.984;2024-02-21T11:27:16;11.40;;;2.83;;
83362;SDS011;73275;50.882;5.984;2024-02-21T11:32:14;6.90;;;2.10;;
83362;SDS011;73275;50.882;5.984;2024-02-21T11:35:03;7.00;;;2.38;;
83362;SDS011;73275;50.882;5.984;2024-02-21T11:37:31;10.80;;;2.60;;
83362;SDS011;73275;50.882;5.984;2024-02-21T11:40:04;8.10;;;2.13;;
83362;SDS011;73275;50.882;5.984;2024-02-21T11:42:32;9.43;;;2.38;;
83362;SDS011;73275;50.882;5.984;2024-02-21T11:44:57;7.13;;;2.97;;
83362;SDS011;73275;50.882;5.984;2024-02-21T11:47:25;7.65;;;2.58;;
83362;SDS011;73275;50.882;5.984;2024-02-21T11:49:53;8.73;;;2.72;;
83362;SDS011;73275;50.882;5.984;2024-02-21T11:52:23;9.77;;;2.97;;
83362;SDS011;73275;50.882;5.984;2024-02-21T11:54:51;11.00;;;2.50;;
83362;SDS011;73275;50.882;5.984;2024-02-21T11:57:18;7.30;;;2.20;;
83362;SDS011;73275;50.882;5.984;2024-02-21T12:02:39;8.80;;;2.97;;
83362;SDS011;73275;50.882;5.984;2024-02-21T12:05:05;7.53;;;2.78;;
83362;SDS011;73275;50.882;5.984;2024-02-21T12:07:30;7.63;;;2.50;;
83362;SDS011;73275;50.882;5.984;2024-02-21T12:09:58;8.93;;;2.80;;
83362;SDS011;73275;50.882;5.984;2024-02-21T12:12:25;5.88;;;2.67;;
83362;SDS011;73275;50.882;5.984;2024-02-21T12:14:55;9.03;;;2.87;;
83362;SDS011;73275;50.882;5.984;2024-02-21T12:17:23;9.50;;;3.03;;
83362;SDS011;73275;50.882;5.984;2024-02-21T12:19:50;7.05;;;2.20;;
83362;SDS011;73275;50.882;5.984;2024-02-21T12:22:18;4.80;;;1.92;;
83362;SDS011;73275;50.882;5.984;2024-02-21T12:24:44;7.18;;;2.38;;
83362;SDS011;73275;50.882;5.984;2024-02-21T12:27:13;7.57;;;3.00;;
83362;SDS011;73275;50.882;5.984;2024-02-21T12:29:40;7.97;;;2.50;;
83362;SDS011;73275;50.882;5.984;2024-02-21T12:32:08;10.75;;;2.63;;
83362;SDS011;73275;50.882;5.984;2024-02-21T12:34:34;6.82;;;2.50;;
83362;SDS011;73275;50.882;5.984;2024-02-21T12:37:01;7.63;;;2.97;;
83362;SDS011;73275;50.882;5.984;2024-02-21T12:39:28;7.57;;;2.30;;
83362;SDS011;73275;50.882;5.984;2024-02-21T12:41:53;10.82;;;2.33;;
83362;SDS011;73275;50.882;5.984;2024-02-21T12:44:21;10.60;;;2.60;;
83362;SDS011;73275;50.882;5.984;2024-02-21T12:46:46;10.17;;;2.97;;
83362;SDS011;73275;50.882;5.984;2024-02-21T12:49:16;10.30;;;3.00;;
83362;SDS011;73275;50.882;5.984;2024-02-21T12:51:42;9.37;;;3.00;;
83362;SDS011;73275;50.882;5.984;2024-02-21T12:54:08;7.00;;;3.10;;
83362;SDS011;73275;50.882;5.984;2024-02-21T12:56:36;8.23;;;2.97;;
83362;SDS011;73275;50.882;5.984;2024-02-21T12:59:02;4.05;;;2.20;;
83362;SDS011;73275;50.882;5.984;2024-02-21T13:01:31;6.68;;;2.90;;
83362;SDS011;73275;50.882;5.984;2024-02-21T13:03:57;10.47;;;2.63;;
83362;SDS011;73275;50.882;5.984;2024-02-21T13:06:26;7.97;;;2.35;;
83362;SDS011;73275;50.882;5.984;2024-02-21T13:08:52;7.07;;;2.30;;
83362;SDS011;73275;50.882;5.984;2024-02-21T13:11:19;5.97;;;2.20;;
83362;SDS011;73275;50.882;5.984;2024-02-21T13:13:44;8.70;;;2.03;;
83362;SDS011;73275;50.882;5.984;2024-02-21T13:16:10;7.10;;;1.87;;
83362;SDS011;73275;50.882;5.984;2024-02-21T13:18:36;5.23;;;2.23;;
83362;SDS011;73275;50.882;5.984;2024-02-21T13:21:03;6.78;;;2.10;;
83362;SDS011;73275;50.882;5.984;2024-02-21T13:23:29;7.30;;;2.20;;
83362;SDS011;73275;50.882;5.984;2024-02-21T13:26:02;6.15;;;2.38;;
83362;SDS011;73275;50.882;5.984;2024-02-21T13:28:27;6.07;;;2.20;;
83362;SDS011;73275;50.882;5.984;2024-02-21T13:30:56;6.43;;;2.17;;
83362;SDS011;73275;50.882;5.984;2024-02-21T13:33:23;5.05;;;2.20;;
83362;SDS011;73275;50.882;5.984;2024-02-21T13:35:48;4.60;;;1.70;;
83362;SDS011;73275;50.882;5.984;2024-02-21T13:38:14;5.53;;;2.10;;
83362;SDS011;73275;50.882;5.984;2024-02-21T13:40:39;6.70;;;2.20;;
83362;SDS011;73275;50.882;5.984;2024-02-21T13:43:07;9.95;;;2.38;;
83362;SDS011;73275;50.882;5.984;2024-02-21T13:45:34;7.70;;;1.93;;
83362;SDS011;73275;50.882;5.984;2024-02-21T13:47:59;6.80;;;1.93;;
83362;SDS011;73275;50.882;5.984;2024-02-21T13:50:30;7.67;;;2.10;;
83362;SDS011;73275;50.882;5.984;2024-02-21T13:52:56;3.83;;;1.80;;
83362;SDS011;73275;50.882;5.984;2024-02-21T13:55:22;4.57;;;2.10;;
83362;SDS011;73275;50.882;5.984;2024-02-21T14:01:14;8.45;;;2.10;;
83362;SDS011;73275;50.882;5.984;2024-02-21T14:03:40;7.37;;;2.03;;
83362;SDS011;73275;50.882;5.984;2024-02-21T14:06:07;8.68;;;2.40;;
83362;SDS011;73275;50.882;5.984;2024-02-21T14:08:33;8.25;;;1.90;;
83362;SDS011;73275;50.882;5.984;2024-02-21T14:10:59;8.73;;;2.30;;
83362;SDS011;73275;50.882;5.984;2024-02-21T14:16:25;6.65;;;2.08;;
83362;SDS011;73275;50.882;5.984;2024-02-21T14:21:42;4.50;;;1.73;;
83362;SDS011;73275;50.882;5.984;2024-02-21T14:24:08;7.65;;;1.75;;
83362;SDS011;73275;50.882;5.984;2024-02-21T14:26:33;5.73;;;1.87;;
83362;SDS011;73275;50.882;5.984;2024-02-21T14:29:00;7.28;;;1.60;;
83362;SDS011;73275;50.882;5.984;2024-02-21T14:31:28;5.82;;;1.98;;
83362;SDS011;73275;50.882;5.984;2024-02-21T14:33:56;4.83;;;2.10;;
83362;SDS011;73275;50.882;5.984;2024-02-21T14:39:44;5.25;;;1.70;;
83362;SDS011;73275;50.882;5.984;2024-02-21T14:42:09;4.77;;;2.07;;
83362;SDS011;73275;50.882;5.984;2024-02-21T14:44:35;5.00;;;1.93;;
83362;SDS011;73275;50.882;5.984;2024-02-21T14:47:02;6.68;;;2.05;;
83362;SDS011;73275;50.882;5.984;2024-02-21T14:49:28;5.65;;;1.83;;
83362;SDS011;73275;50.882;5.984;2024-02-21T14:51:54;3.93;;;1.60;;
83362;SDS011;73275;50.882;5.984;2024-02-21T14:54:19;7.67;;;1.40;;
83362;SDS011;73275;50.882;5.984;2024-02-21T14:56:45;6.15;;;1.85;;
83362;SDS011;73275;50.882;5.984;2024-02-21T14:59:11;5.88;;;1.67;;